Accueil
METAR-TAF:

METAR-TAF

Aéroports :

Mae Hong Son, Thaïlande

latitude: 19-18N, longitude: 097-50E, altitude: 267 m

Observation

Le bulletin a été fait il y a 53 minutes, à 01:00 UTC
Vent calme
Température 17°C
Humidité 88%
Pression 1020 hPa
Visibilité: 2500 m
Quelques nuages à une hauteur de 1200 ft
brume

METAR: VTCH 220100Z 00000KT 2500 BR FEW012 17/15 Q1020

Heure: 08:53 (01:53 UTC)

Prévision

Le bulletin a été fait il y a 2 heures et 53 minutes, à 23:00 UTC
Prévision valable du 22 à 00 UTC au 22 à 24 UTC
Vent 5 kt de sud-ouest
Visibilité: 4000 m
Quelques nuages à une hauteur de 2500 ft
brume
Evoluant progressivement
du 22 à 07 UTC au 22 à 09 UTC
Visibilité: 8000 m

TAF: VTCH 212300Z 2200/2224 23005KT 4000 BR FEW025 BECMG 2207/2209 8000 NSW

Observations et prévisions météorologiques de plus de 4000 aéroports (messages METAR et TAF).

Les stations disponibles sont représentées par des disques jaunes et rouges sur la carte.

Passer la souris dessus pour voir le nom de la station.

Cliquer dessus pour voir les observations et prévisions météorologiques.

Pour changer de carte: cliquez sur les boutons verts avec une croix noire pour zoomer, sur le bouton vert avec un tiret pour effectuer un zoom arrière, ou sur les flèches vertes pour les cartes adjacentes.


METAR-TAF: